Time;durP1;ratioP1;P1;durP2;ratioP2;P2;SDS_P1;SDS_P2;PMS_P1;PMS_P2;Temp;Humidity;BMP_temperature;BMP_pressure;BME280_temperature;BME280_humidity;BME280_pressure;Samples;Min_cycle;Max_cycle;Signal;HPM_P1;HPM_P2
2022/05/18 00:01:34;;;;;;;;;;;21.20;99.90;;;;;;5045405;28;19916;-74
2022/05/18 00:03:59;;;;;;;;;;;21.10;99.90;;;;;;5026117;28;19925;-73
2022/05/18 00:06:25;;;;;;;;;;;21.00;99.90;;;;;;5045761;28;19920;-72
2022/05/18 00:08:50;;;;;;;;;;;20.90;99.90;;;;;;5045473;28;19913;-73
2022/05/18 00:11:17;;;;;;;;;;;20.90;99.90;;;;;;5030520;28;19917;-73
2022/05/18 00:13:44;;;;;;;;;;;20.80;99.90;;;;;;5043262;28;20414;-72
2022/05/18 00:16:10;;;;;;;;;;;20.90;99.90;;;;;;5047102;28;20011;-73
2022/05/18 00:18:36;;;;;;;;;;;20.90;99.90;;;;;;5043514;28;19955;-72
2022/05/18 00:21:03;;;;;;;;;;;20.80;99.90;;;;;;5043847;28;20387;-72
2022/05/18 00:23:29;;;;;;;;;;;20.80;99.90;;;;;;5045224;28;19921;-73
2022/05/18 00:25:55;;;;;;;;;;;20.80;99.90;;;;;;5041536;28;19939;-71
2022/05/18 00:28:21;;;;;;;;;;;20.80;99.90;;;;;;5037892;28;19927;-74
2022/05/18 00:30:46;;;;;;;;;;;20.90;99.90;;;;;;5023088;28;19932;-71
2022/05/18 00:33:12;;;;;;;;;;;21.10;99.90;;;;;;5046364;28;19912;-72
2022/05/18 00:35:39;;;;;;;;;;;21.20;99.90;;;;;;5048446;28;19924;-72
2022/05/18 00:38:05;;;;;;;;;;;21.20;99.90;;;;;;5051514;28;20350;-72
2022/05/18 00:40:31;;;;;;;;;;;21.10;99.90;;;;;;5047455;28;19979;-74
2022/05/18 00:42:56;;;;;;;;;;;21.20;99.90;;;;;;5038290;28;19912;-73
2022/05/18 00:45:22;;;;;;;;;;;21.20;99.90;;;;;;5047464;28;19920;-73
2022/05/18 00:47:48;;;;;;;;;;;21.30;99.90;;;;;;5049208;28;19920;-73
2022/05/18 00:50:16;;;;;;;;;;;21.40;99.90;;;;;;5055408;28;19917;-72
2022/05/18 00:52:44;;;;;;;;;;;21.40;99.90;;;;;;5068395;28;20274;-72
2022/05/18 00:55:12;;;;;;;;;;;21.40;99.90;;;;;;5047359;28;19924;-72
2022/05/18 00:57:45;;;;;;;;;;;21.40;99.90;;;;;;5023216;28;19917;-72
2022/05/18 01:00:13;;;;;;;;;;;21.30;99.90;;;;;;5040345;28;19920;-73
2022/05/18 01:02:42;;;;;;;;;;;21.30;99.90;;;;;;5043278;28;19927;-73
2022/05/18 01:05:10;;;;;;;;;;;21.30;99.90;;;;;;5021390;28;20347;-71
2022/05/18 01:07:38;;;;;;;;;;;21.30;99.90;;;;;;5041460;28;19913;-72
2022/05/18 01:10:04;;;;;;;;;;;21.30;99.90;;;;;;5021292;28;19935;-73
2022/05/18 01:12:30;;;;;;;;;;;21.30;99.90;;;;;;5040089;28;20000;-72
2022/05/18 01:15:02;;;;;;;;;;;21.30;99.90;;;;;;5041750;28;20005;-72
2022/05/18 01:17:32;;;;;;;;;;;21.20;99.90;;;;;;5025277;28;20365;-73
2022/05/18 01:19:58;;;;;;;;;;;21.20;99.90;;;;;;5041202;28;20517;-73
2022/05/18 01:22:33;;;;;;;;;;;21.30;99.90;;;;;;5022503;28;19913;-71
2022/05/18 01:25:07;;;;;;;;;;;21.30;99.90;;;;;;5015807;28;19956;-72
2022/05/18 01:27:33;;;;;;;;;;;21.30;99.90;;;;;;5037854;28;19999;-72
2022/05/18 01:29:59;;;;;;;;;;;21.30;99.90;;;;;;5021940;28;20359;-72
2022/05/18 01:32:25;;;;;;;;;;;21.30;99.90;;;;;;5040458;28;19920;-72
2022/05/18 01:34:50;;;;;;;;;;;21.20;99.90;;;;;;5022515;28;19917;-73
2022/05/18 01:37:16;;;;;;;;;;;21.20;99.90;;;;;;5037690;28;20365;-73
2022/05/18 01:39:58;;;;;;;;;;;21.20;99.90;;;;;;5038927;28;20015;-73
2022/05/18 01:42:27;;;;;;;;;;;21.10;99.90;;;;;;5039683;28;19925;-73
2022/05/18 01:44:53;;;;;;;;;;;21.00;99.90;;;;;;5040908;28;19921;-72
2022/05/18 01:47:18;;;;;;;;;;;20.90;99.90;;;;;;5041393;28;19920;-72
2022/05/18 01:49:45;;;;;;;;;;;20.80;99.90;;;;;;5040874;28;19920;-72
2022/05/18 01:52:11;;;;;;;;;;;20.80;99.90;;;;;;5049193;28;19936;-72
2022/05/18 01:54:38;;;;;;;;;;;20.70;99.90;;;;;;5052043;28;20366;-72
2022/05/18 01:57:04;;;;;;;;;;;20.80;99.90;;;;;;5045814;28;19913;-72
2022/05/18 01:59:30;;;;;;;;;;;20.70;99.90;;;;;;5042668;28;19935;-74
2022/05/18 02:01:55;;;;;;;;;;;20.70;99.90;;;;;;5038930;28;19917;-71
2022/05/18 02:04:21;;;;;;;;;;;20.70;99.90;;;;;;5039231;28;19920;-71
2022/05/18 02:06:46;;;;;;;;;;;20.70;99.90;;;;;;5040133;28;20401;-73
2022/05/18 02:09:16;;;;;;;;;;;20.80;99.90;;;;;;5041572;28;20278;-72
2022/05/18 02:11:42;;;;;;;;;;;20.80;99.90;;;;;;5047666;28;20274;-72
2022/05/18 02:14:09;;;;;;;;;;;20.80;99.90;;;;;;5045812;28;19909;-72
2022/05/18 02:16:35;;;;;;;;;;;20.90;99.90;;;;;;5027533;28;19908;-73
2022/05/18 02:19:00;;;;;;;;;;;20.90;99.90;;;;;;5033580;28;19969;-72
2022/05/18 02:21:26;;;;;;;;;;;20.80;99.90;;;;;;5050870;28;19923;-72
2022/05/18 02:23:51;;;;;;;;;;;20.80;99.90;;;;;;5033697;28;20302;-72
2022/05/18 02:26:17;;;;;;;;;;;20.80;99.90;;;;;;5048992;28;19910;-72
2022/05/18 02:28:43;;;;;;;;;;;20.80;99.90;;;;;;5053599;28;20504;-73
2022/05/18 02:31:09;;;;;;;;;;;20.80;99.90;;;;;;5055580;28;19932;-72
2022/05/18 02:33:34;;;;;;;;;;;20.80;99.90;;;;;;5050039;28;19921;-73
2022/05/18 02:36:00;;;;;;;;;;;20.70;99.90;;;;;;5045502;28;20366;-72
2022/05/18 02:38:26;;;;;;;;;;;20.60;99.90;;;;;;5031724;28;19917;-73
2022/05/18 02:40:51;;;;;;;;;;;20.60;99.90;;;;;;5055881;28;21178;-73
2022/05/18 02:43:17;;;;;;;;;;;20.50;99.90;;;;;;5063621;28;19912;-74
2022/05/18 02:45:43;;;;;;;;;;;20.40;99.90;;;;;;5035177;28;20015;-72
2022/05/18 02:48:08;;;;;;;;;;;20.40;99.90;;;;;;5034609;28;19909;-73
2022/05/18 02:50:34;;;;;;;;;;;20.40;99.90;;;;;;5057230;28;19913;-72
2022/05/18 02:53:01;;;;;;;;;;;20.30;99.90;;;;;;5051194;28;19948;-72
2022/05/18 02:58:10;;;;;;;;;;;20.30;99.90;;;;;;5052891;28;20014;-72
2022/05/18 03:00:36;;;;;;;;;;;20.20;99.90;;;;;;5035646;28;19925;-71
2022/05/18 03:03:01;;;;;;;;;;;20.20;99.90;;;;;;5066106;28;19932;-72
2022/05/18 03:05:27;;;;;;;;;;;20.20;99.90;;;;;;5039197;28;19990;-74
2022/05/18 03:07:53;;;;;;;;;;;20.20;99.90;;;;;;5047003;28;19982;-72
2022/05/18 03:10:19;;;;;;;;;;;20.10;99.90;;;;;;5033914;28;19917;-71
2022/05/18 03:12:44;;;;;;;;;;;20.20;99.90;;;;;;5051721;28;19919;-71
2022/05/18 03:15:11;;;;;;;;;;;20.10;99.90;;;;;;5046892;28;20139;-73
2022/05/18 03:17:36;;;;;;;;;;;20.10;99.90;;;;;;5046940;28;19920;-73
2022/05/18 03:20:02;;;;;;;;;;;20.10;99.90;;;;;;5049914;28;19913;-72
2022/05/18 03:25:12;;;;;;;;;;;20.10;99.90;;;;;;5057558;28;20352;-73
2022/05/18 03:27:41;;;;;;;;;;;20.20;99.90;;;;;;5047264;28;20019;-72
2022/05/18 03:30:08;;;;;;;;;;;20.20;99.90;;;;;;5050208;28;20147;-73
2022/05/18 03:32:33;;;;;;;;;;;20.30;99.90;;;;;;5031964;28;20012;-73
2022/05/18 03:34:59;;;;;;;;;;;20.40;99.90;;;;;;5057160;28;19996;-73
2022/05/18 03:37:24;;;;;;;;;;;20.40;99.90;;;;;;5025995;28;19912;-73
2022/05/18 03:39:50;;;;;;;;;;;20.40;99.90;;;;;;5038263;28;19916;-72
2022/05/18 03:42:15;;;;;;;;;;;20.40;99.90;;;;;;5049573;28;19916;-73
2022/05/18 03:44:41;;;;;;;;;;;20.50;99.90;;;;;;5052568;28;19936;-73
2022/05/18 03:47:07;;;;;;;;;;;20.50;99.90;;;;;;5047624;28;19920;-73
2022/05/18 03:49:32;;;;;;;;;;;20.50;99.90;;;;;;5050554;28;20367;-74
2022/05/18 03:51:58;;;;;;;;;;;20.60;99.90;;;;;;5055602;28;20346;-73
2022/05/18 03:54:24;;;;;;;;;;;20.60;99.90;;;;;;5063558;28;20291;-72
2022/05/18 03:56:49;;;;;;;;;;;20.60;99.90;;;;;;5049342;28;19919;-74
2022/05/18 03:59:15;;;;;;;;;;;20.60;99.90;;;;;;5027602;28;19917;-73
2022/05/18 04:01:41;;;;;;;;;;;20.60;99.90;;;;;;5029889;28;21861;-73
2022/05/18 04:04:07;;;;;;;;;;;20.40;99.90;;;;;;5052550;28;20405;-72
2022/05/18 04:06:32;;;;;;;;;;;20.40;99.90;;;;;;5028989;28;19956;-74
2022/05/18 04:08:58;;;;;;;;;;;20.50;99.90;;;;;;5051090;28;19958;-72
2022/05/18 04:11:23;;;;;;;;;;;20.50;99.90;;;;;;5051133;28;20317;-72
2022/05/18 04:13:50;;;;;;;;;;;20.70;99.90;;;;;;5048427;28;19917;-73
2022/05/18 04:16:16;;;;;;;;;;;20.70;99.90;;;;;;5048261;28;19923;-74
2022/05/18 04:18:42;;;;;;;;;;;20.80;99.90;;;;;;5031745;28;20381;-73
2022/05/18 04:21:07;;;;;;;;;;;20.90;99.90;;;;;;5033297;28;19921;-72
2022/05/18 04:23:35;;;;;;;;;;;21.00;99.90;;;;;;5051378;28;19982;-72
2022/05/18 04:26:01;;;;;;;;;;;21.00;99.90;;;;;;5046961;28;20028;-73
2022/05/18 04:28:26;;;;;;;;;;;21.00;99.90;;;;;;5032099;28;20449;-71
2022/05/18 04:30:53;;;;;;;;;;;21.10;99.90;;;;;;5054272;28;19958;-73
2022/05/18 04:33:20;;;;;;;;;;;21.10;99.90;;;;;;5035559;28;20003;-72
2022/05/18 04:35:48;;;;;;;;;;;21.20;99.90;;;;;;5035235;28;19935;-74
2022/05/18 04:38:14;;;;;;;;;;;21.30;99.90;;;;;;5038060;28;19916;-73
2022/05/18 04:40:39;;;;;;;;;;;21.30;99.90;;;;;;5033234;28;20000;-73
2022/05/18 04:43:05;;;;;;;;;;;21.40;99.90;;;;;;5028236;28;19948;-74
2022/05/18 04:45:31;;;;;;;;;;;21.50;99.90;;;;;;5041623;28;20341;-74
2022/05/18 04:47:56;;;;;;;;;;;21.40;99.90;;;;;;5042108;28;19937;-74
2022/05/18 04:50:22;;;;;;;;;;;21.40;99.90;;;;;;5041125;28;20061;-73
2022/05/18 04:52:48;;;;;;;;;;;21.40;99.90;;;;;;5042551;28;19995;-72
2022/05/18 04:55:14;;;;;;;;;;;21.40;99.90;;;;;;5041884;28;20000;-73
2022/05/18 04:57:40;;;;;;;;;;;21.30;99.90;;;;;;5040708;28;19959;-73
2022/05/18 05:00:06;;;;;;;;;;;21.10;99.90;;;;;;5039714;28;19952;-73
2022/05/18 05:02:33;;;;;;;;;;;21.10;99.90;;;;;;5030623;28;20004;-75
2022/05/18 05:04:59;;;;;;;;;;;21.00;99.90;;;;;;5042831;28;20011;-74
2022/05/18 05:07:24;;;;;;;;;;;20.90;99.90;;;;;;5027956;28;19987;-73
2022/05/18 05:09:50;;;;;;;;;;;20.80;99.90;;;;;;5044631;28;19921;-73
2022/05/18 05:12:18;;;;;;;;;;;20.80;99.90;;;;;;5025678;28;20012;-73
2022/05/18 05:14:44;;;;;;;;;;;20.80;99.90;;;;;;5027106;28;19982;-73
2022/05/18 05:17:10;;;;;;;;;;;20.80;99.90;;;;;;5047642;28;20366;-71
2022/05/18 05:19:36;;;;;;;;;;;21.00;99.90;;;;;;5041670;28;19967;-74
2022/05/18 05:22:01;;;;;;;;;;;21.20;99.90;;;;;;5023924;28;19943;-72
2022/05/18 05:24:27;;;;;;;;;;;21.30;99.90;;;;;;5043345;28;19920;-73
2022/05/18 05:26:53;;;;;;;;;;;21.30;99.90;;;;;;5038908;28;19995;-76
2022/05/18 05:29:20;;;;;;;;;;;21.30;99.90;;;;;;5040316;28;20579;-73
2022/05/18 05:31:46;;;;;;;;;;;21.30;99.90;;;;;;5022199;28;19967;-73
2022/05/18 05:34:11;;;;;;;;;;;21.40;99.90;;;;;;5022151;28;20378;-75
2022/05/18 05:36:38;;;;;;;;;;;21.50;99.90;;;;;;5043724;28;19928;-74
2022/05/18 05:39:03;;;;;;;;;;;21.30;99.90;;;;;;5028894;28;19951;-75
2022/05/18 05:41:29;;;;;;;;;;;21.30;99.90;;;;;;5040439;28;20000;-75
2022/05/18 05:43:55;;;;;;;;;;;21.30;99.90;;;;;;5041660;28;19920;-73
2022/05/18 05:46:21;;;;;;;;;;;21.30;99.90;;;;;;5041602;28;19947;-73
2022/05/18 05:48:47;;;;;;;;;;;21.30;99.90;;;;;;5026021;28;20355;-73
2022/05/18 05:51:13;;;;;;;;;;;21.20;99.90;;;;;;5029981;28;19927;-73
2022/05/18 05:53:39;;;;;;;;;;;21.20;99.90;;;;;;5041370;28;20008;-74
2022/05/18 05:56:06;;;;;;;;;;;21.20;99.90;;;;;;5045386;28;19917;-74
2022/05/18 05:58:33;;;;;;;;;;;21.20;99.90;;;;;;5046572;28;19944;-73
2022/05/18 06:00:59;;;;;;;;;;;21.10;99.90;;;;;;5032758;28;19944;-72
2022/05/18 06:03:26;;;;;;;;;;;21.10;99.90;;;;;;5054871;28;19963;-73
2022/05/18 06:05:52;;;;;;;;;;;21.20;99.90;;;;;;5054450;28;19908;-73
2022/05/18 06:08:17;;;;;;;;;;;21.10;99.90;;;;;;5050003;28;20386;-71
2022/05/18 06:10:43;;;;;;;;;;;21.10;99.90;;;;;;5054444;28;20002;-73
2022/05/18 06:13:09;;;;;;;;;;;21.10;99.90;;;;;;5050486;28;19917;-74
2022/05/18 06:15:35;;;;;;;;;;;21.20;99.90;;;;;;5048074;28;19917;-73
2022/05/18 06:18:01;;;;;;;;;;;21.40;99.90;;;;;;5041704;28;20301;-73
2022/05/18 06:20:27;;;;;;;;;;;21.60;99.90;;;;;;5043647;28;19925;-72
2022/05/18 06:22:53;;;;;;;;;;;21.90;99.90;;;;;;5045787;28;20424;-73
2022/05/18 06:25:19;;;;;;;;;;;21.90;99.90;;;;;;5030342;28;19921;-71
2022/05/18 06:27:44;;;;;;;;;;;22.10;99.90;;;;;;5046390;28;19935;-72
2022/05/18 06:30:11;;;;;;;;;;;22.30;99.90;;;;;;5036483;28;19912;-73
2022/05/18 06:32:37;;;;;;;;;;;22.20;99.90;;;;;;5037956;28;19917;-72
2022/05/18 06:35:03;;;;;;;;;;;22.00;99.90;;;;;;5030513;28;20000;-72
2022/05/18 06:37:28;;;;;;;;;;;21.80;99.90;;;;;;5037153;28;19909;-73
2022/05/18 06:39:54;;;;;;;;;;;21.90;99.90;;;;;;5046175;28;19923;-73
2022/05/18 06:42:20;;;;;;;;;;;22.00;99.90;;;;;;5051139;28;20439;-74
2022/05/18 06:44:45;;;;;;;;;;;22.30;99.90;;;;;;5052404;28;19978;-68
2022/05/18 06:47:12;;;;;;;;;;;22.60;99.90;;;;;;5051549;28;19913;-68
2022/05/18 06:49:39;;;;;;;;;;;22.80;99.90;;;;;;5051450;28;19962;-69
2022/05/18 06:52:04;;;;;;;;;;;23.00;99.90;;;;;;5027997;28;20046;-69
2022/05/18 06:54:30;;;;;;;;;;;23.30;99.90;;;;;;5052037;28;19913;-67
2022/05/18 06:56:55;;;;;;;;;;;23.40;99.90;;;;;;5049633;28;19959;-68
2022/05/18 06:59:21;;;;;;;;;;;23.50;99.90;;;;;;5049588;28;19917;-69
2022/05/18 07:01:47;;;;;;;;;;;23.60;99.90;;;;;;5047995;28;19921;-69
2022/05/18 07:04:13;;;;;;;;;;;23.50;99.90;;;;;;5047417;28;20363;-69
2022/05/18 07:06:42;;;;;;;;;;;23.00;99.90;;;;;;5049000;28;19935;-68
2022/05/18 07:09:15;;;;;;;;;;;22.90;99.90;;;;;;5044012;28;19917;-70
2022/05/18 07:11:42;;;;;;;;;;;22.90;99.90;;;;;;5059606;28;19919;-68
2022/05/18 07:14:07;;;;;;;;;;;23.00;99.90;;;;;;5062581;28;19909;-69
2022/05/18 07:16:33;;;;;;;;;;;23.20;99.90;;;;;;5051041;28;19913;-68
2022/05/18 07:18:59;;;;;;;;;;;23.20;99.90;;;;;;5048078;28;20019;-68
2022/05/18 07:21:25;;;;;;;;;;;23.20;99.90;;;;;;5057001;28;19964;-69
2022/05/18 07:23:52;;;;;;;;;;;23.10;99.90;;;;;;5066589;28;19908;-68
2022/05/18 07:26:17;;;;;;;;;;;22.90;99.90;;;;;;5047157;28;19966;-70
2022/05/18 07:28:43;;;;;;;;;;;22.70;99.90;;;;;;5045773;28;19917;-68
2022/05/18 07:31:09;;;;;;;;;;;22.80;99.90;;;;;;5048433;28;19909;-68
2022/05/18 07:33:35;;;;;;;;;;;22.90;99.90;;;;;;5040752;28;20015;-67
2022/05/18 07:36:01;;;;;;;;;;;22.90;99.90;;;;;;5051328;28;19912;-67
2022/05/18 07:38:27;;;;;;;;;;;23.00;99.90;;;;;;5054590;28;20273;-67
2022/05/18 07:40:53;;;;;;;;;;;22.90;99.90;;;;;;5050007;28;20367;-68
2022/05/18 07:43:19;;;;;;;;;;;22.90;99.90;;;;;;5052803;28;19939;-69
2022/05/18 07:45:49;;;;;;;;;;;23.00;99.90;;;;;;5051069;28;19963;-68
2022/05/18 07:48:15;;;;;;;;;;;22.90;99.90;;;;;;5047657;28;19909;-67
2022/05/18 07:50:40;;;;;;;;;;;22.60;99.90;;;;;;5052402;28;19966;-69
2022/05/18 07:53:06;;;;;;;;;;;22.70;99.90;;;;;;5053186;28;19916;-67
2022/05/18 07:55:31;;;;;;;;;;;22.90;99.90;;;;;;5044828;28;19955;-68
2022/05/18 07:57:57;;;;;;;;;;;23.00;99.90;;;;;;5054832;28;20392;-69
2022/05/18 08:00:24;;;;;;;;;;;23.00;99.90;;;;;;5052397;28;20000;-69
2022/05/18 08:02:50;;;;;;;;;;;23.10;99.90;;;;;;5049294;28;19966;-68
2022/05/18 08:05:16;;;;;;;;;;;23.20;99.90;;;;;;5054909;28;19927;-69
2022/05/18 08:07:45;;;;;;;;;;;23.20;99.90;;;;;;5058463;28;19916;-68
2022/05/18 08:15:41;;;;;;;;;;;23.00;99.90;;;;;;5069274;28;20619;-67
2022/05/18 08:18:06;;;;;;;;;;;23.20;99.90;;;;;;5049200;28;20011;-68
2022/05/18 08:20:32;;;;;;;;;;;23.20;99.90;;;;;;5050179;28;19924;-67
2022/05/18 08:22:58;;;;;;;;;;;23.20;99.90;;;;;;5050794;28;19920;-68
2022/05/18 08:25:23;;;;;;;;;;;23.20;99.90;;;;;;5031189;28;19913;-68
2022/05/18 08:27:49;;;;;;;;;;;23.30;99.90;;;;;;5051224;28;19913;-68
2022/05/18 08:30:17;;;;;;;;;;;23.30;99.90;;;;;;5050663;28;19921;-68
2022/05/18 08:32:42;;;;;;;;;;;23.20;99.90;;;;;;5051784;28;19913;-68
2022/05/18 08:35:08;;;;;;;;;;;23.40;99.90;;;;;;5050681;28;19924;-68
2022/05/18 08:37:38;;;;;;;;;;;23.40;99.90;;;;;;5051716;28;19913;-68
2022/05/18 08:40:05;;;;;;;;;;;23.30;99.90;;;;;;5050916;28;19976;-68
2022/05/18 08:42:30;;;;;;;;;;;23.40;99.90;;;;;;5051443;28;20337;-68
2022/05/18 08:44:56;;;;;;;;;;;23.30;99.90;;;;;;5046985;28;19924;-68
2022/05/18 08:47:38;;;;;;;;;;;23.40;99.90;;;;;;5049236;28;19913;-67
2022/05/18 08:50:05;;;;;;;;;;;23.60;99.90;;;;;;5046870;28;19915;-69
2022/05/18 08:52:50;;;;;;;;;;;23.60;99.90;;;;;;5050173;28;19913;-69
2022/05/18 08:55:37;;;;;;;;;;;23.50;99.90;;;;;;5049582;28;20028;-68
2022/05/18 08:58:07;;;;;;;;;;;23.80;99.90;;;;;;5042491;28;20408;-68
2022/05/18 09:00:36;;;;;;;;;;;24.10;99.90;;;;;;5049615;28;19913;-69
2022/05/18 09:03:04;;;;;;;;;;;24.20;99.90;;;;;;5050856;28;19913;-69
2022/05/18 09:05:49;;;;;;;;;;;24.00;99.90;;;;;;5048893;28;20030;-67
2022/05/18 09:08:16;;;;;;;;;;;24.10;99.90;;;;;;5049031;28;19987;-68
2022/05/18 09:10:49;;;;;;;;;;;24.10;99.90;;;;;;5048553;28;19938;-68
2022/05/18 09:13:15;;;;;;;;;;;23.90;99.90;;;;;;5050221;28;19936;-69
2022/05/18 09:15:42;;;;;;;;;;;23.90;99.90;;;;;;5046452;28;19912;-69
2022/05/18 09:18:07;;;;;;;;;;;24.00;99.90;;;;;;5050566;28;19936;-69
2022/05/18 09:20:37;;;;;;;;;;;24.10;99.90;;;;;;5049769;28;19959;-68
2022/05/18 09:23:22;;;;;;;;;;;24.10;99.90;;;;;;5050705;28;19963;-68
2022/05/18 09:25:50;;;;;;;;;;;24.10;99.90;;;;;;5033126;28;19919;-68
2022/05/18 09:28:18;;;;;;;;;;;24.30;99.90;;;;;;5048604;28;19913;-68
2022/05/18 09:30:56;;;;;;;;;;;24.30;99.90;;;;;;5053961;28;20296;-68
2022/05/18 09:33:44;;;;;;;;;;;24.40;99.90;;;;;;5053350;28;20398;-68
2022/05/18 09:36:13;;;;;;;;;;;24.60;99.90;;;;;;5044352;28;20325;-70
2022/05/18 09:38:54;;;;;;;;;;;24.60;99.90;;;;;;5050486;28;19999;-68
2022/05/18 09:41:22;;;;;;;;;;;24.60;99.90;;;;;;5053353;28;20297;-68
2022/05/18 09:43:52;;;;;;;;;;;24.50;99.90;;;;;;5054611;28;20008;-69
2022/05/18 09:46:20;;;;;;;;;;;24.40;99.90;;;;;;5052195;28;20025;-68
2022/05/18 09:48:55;;;;;;;;;;;24.40;99.90;;;;;;5054398;28;19915;-68
2022/05/18 09:51:22;;;;;;;;;;;24.30;99.90;;;;;;5053059;28;19962;-67
2022/05/18 09:53:49;;;;;;;;;;;24.20;99.90;;;;;;5049370;28;19908;-68
2022/05/18 09:56:29;;;;;;;;;;;24.40;99.90;;;;;;5051760;28;19913;-68
2022/05/18 09:58:57;;;;;;;;;;;24.60;99.90;;;;;;5051367;28;19921;-68
2022/05/18 10:09:51;;;;;;;;;;;24.80;99.90;;;;;;5054046;28;19990;-69
2022/05/18 10:12:21;;;;;;;;;;;25.00;99.90;;;;;;5056801;28;19912;-68
2022/05/18 10:14:56;;;;;;;;;;;25.30;99.90;;;;;;5050409;28;19935;-63
2022/05/18 10:17:29;;;;;;;;;;;25.40;99.90;;;;;;5046844;28;20279;-65
2022/05/18 10:20:00;;;;;;;;;;;25.40;99.90;;;;;;5048652;28;20398;-63
2022/05/18 10:22:28;;;;;;;;;;;24.90;99.90;;;;;;5051426;28;19970;-64
2022/05/18 10:24:57;;;;;;;;;;;24.90;99.90;;;;;;5050798;28;19912;-65
2022/05/18 10:27:27;;;;;;;;;;;24.70;99.90;;;;;;5052701;28;19909;-65
2022/05/18 10:30:08;;;;;;;;;;;24.50;99.90;;;;;;5051551;28;19921;-65
2022/05/18 10:32:34;;;;;;;;;;;24.60;99.90;;;;;;5050708;28;19909;-64
2022/05/18 10:35:01;;;;;;;;;;;24.60;99.90;;;;;;5034631;28;19958;-65
2022/05/18 10:37:28;;;;;;;;;;;24.80;99.90;;;;;;5052649;28;19944;-64
2022/05/18 10:39:59;;;;;;;;;;;25.00;99.90;;;;;;5047144;28;19920;-65
2022/05/18 10:42:28;;;;;;;;;;;25.20;99.90;;;;;;5052303;28;19924;-65
2022/05/18 10:44:54;;;;;;;;;;;25.20;99.90;;;;;;5049532;28;19917;-65
2022/05/18 10:47:26;;;;;;;;;;;25.20;99.90;;;;;;5046297;28;19917;-65
2022/05/18 10:49:53;;;;;;;;;;;25.30;99.90;;;;;;5025082;28;19992;-64
2022/05/18 10:52:20;;;;;;;;;;;25.60;99.90;;;;;;5046658;28;20506;-63
2022/05/18 10:54:54;;;;;;;;;;;25.60;99.90;;;;;;5043093;28;19912;-66
2022/05/18 10:57:21;;;;;;;;;;;25.60;99.90;;;;;;5046476;28;19913;-66
2022/05/18 10:59:54;;;;;;;;;;;25.60;99.90;;;;;;5052321;28;19955;-66
2022/05/18 11:02:29;;;;;;;;;;;25.70;99.90;;;;;;5036871;28;20003;-68
2022/05/18 11:05:13;;;;;;;;;;;25.90;99.90;;;;;;5054158;28;19913;-67
2022/05/18 11:07:38;;;;;;;;;;;26.20;99.90;;;;;;5052740;28;19916;-68
2022/05/18 11:10:06;;;;;;;;;;;26.20;99.90;;;;;;5057462;28;20004;-69
2022/05/18 11:12:40;;;;;;;;;;;26.00;99.90;;;;;;5052584;28;19913;-69
2022/05/18 11:15:06;;;;;;;;;;;26.00;99.90;;;;;;5049625;28;19913;-68
2022/05/18 11:17:41;;;;;;;;;;;25.70;99.90;;;;;;5052994;28;19999;-68
2022/05/18 11:20:24;;;;;;;;;;;25.70;99.90;;;;;;5049623;28;19913;-69
2022/05/18 11:22:56;;;;;;;;;;;25.80;99.90;;;;;;5052553;28;20416;-69
2022/05/18 11:25:37;;;;;;;;;;;25.40;99.90;;;;;;5049214;28;19912;-68
2022/05/18 11:28:08;;;;;;;;;;;25.40;99.90;;;;;;5047033;28;19920;-68
2022/05/18 11:30:44;;;;;;;;;;;25.70;99.90;;;;;;5033939;28;19913;-69
2022/05/18 11:33:15;;;;;;;;;;;25.90;99.90;;;;;;5056488;28;19958;-68
2022/05/18 11:35:44;;;;;;;;;;;26.10;99.90;;;;;;5050416;28;20015;-68
2022/05/18 11:38:28;;;;;;;;;;;25.80;99.90;;;;;;5054138;28;19916;-67
2022/05/18 11:41:00;;;;;;;;;;;25.90;99.90;;;;;;5056345;28;19913;-70
2022/05/18 11:43:41;;;;;;;;;;;26.00;99.90;;;;;;5051225;28;19917;-67
2022/05/18 11:46:12;;;;;;;;;;;25.70;99.90;;;;;;5050409;28;19913;-68
2022/05/18 11:48:54;;;;;;;;;;;25.70;99.90;;;;;;5046959;28;19913;-69
2022/05/18 11:51:19;;;;;;;;;;;25.70;99.90;;;;;;5043211;28;19917;-68
2022/05/18 11:53:45;;;;;;;;;;;25.70;99.90;;;;;;5042025;28;19967;-68
2022/05/18 11:56:13;;;;;;;;;;;25.70;99.90;;;;;;5041662;28;19913;-70
2022/05/18 11:59:23;;;;;;;;;;;25.90;99.90;;;;;;5037287;28;20037;-69
2022/05/18 12:02:10;;;;;;;;;;;25.80;99.90;;;;;;5044015;28;19924;-69
2022/05/18 12:04:54;;;;;;;;;;;25.70;99.90;;;;;;5041766;28;19913;-68
2022/05/18 12:07:19;;;;;;;;;;;25.90;99.90;;;;;;5041328;28;19917;-69
2022/05/18 12:09:54;;;;;;;;;;;26.30;99.90;;;;;;5043718;28;20429;-69
2022/05/18 12:12:49;;;;;;;;;;;26.50;99.90;;;;;;5042823;28;19952;-69
2022/05/18 12:15:33;;;;;;;;;;;26.50;99.90;;;;;;5012268;28;19917;-68
2022/05/18 12:18:01;;;;;;;;;;;26.60;99.90;;;;;;5044841;28;20263;-67
2022/05/18 12:20:39;;;;;;;;;;;26.10;99.90;;;;;;5044817;28;20445;-69
2022/05/18 12:23:06;;;;;;;;;;;26.20;99.90;;;;;;5043145;28;20907;-67
2022/05/18 12:25:34;;;;;;;;;;;26.00;99.90;;;;;;5047378;28;19958;-69
2022/05/18 12:28:00;;;;;;;;;;;25.90;99.90;;;;;;5043125;28;19921;-69
2022/05/18 12:30:28;;;;;;;;;;;25.90;99.90;;;;;;5054192;28;19913;-67
2022/05/18 12:32:56;;;;;;;;;;;25.90;99.90;;;;;;5052906;28;20428;-68
2022/05/18 12:35:33;;;;;;;;;;;26.20;99.90;;;;;;5046107;28;20392;-68
2022/05/18 12:37:58;;;;;;;;;;;26.40;99.90;;;;;;5043325;28;19917;-68
2022/05/18 12:40:33;;;;;;;;;;;26.30;99.90;;;;;;5039954;28;19919;-69
2022/05/18 12:43:10;;;;;;;;;;;26.20;99.90;;;;;;5040072;28;20315;-69
2022/05/18 12:45:37;;;;;;;;;;;26.00;99.90;;;;;;5043974;28;19912;-70
2022/05/18 12:48:10;;;;;;;;;;;26.10;99.90;;;;;;5047523;28;19928;-67
2022/05/18 12:50:40;;;;;;;;;;;26.00;99.90;;;;;;5045709;28;19912;-67
2022/05/18 12:53:17;;;;;;;;;;;26.10;99.90;;;;;;5049301;28;19966;-68
2022/05/18 12:56:08;;;;;;;;;;;26.10;99.90;;;;;;5048878;28;19913;-70
2022/05/18 12:58:41;;;;;;;;;;;26.10;99.90;;;;;;5050558;28;19920;-68
2022/05/18 13:01:10;;;;;;;;;;;26.50;99.90;;;;;;5046819;28;19916;-69
2022/05/18 13:03:54;;;;;;;;;;;26.70;99.90;;;;;;5042944;28;19940;-69
2022/05/18 13:06:35;;;;;;;;;;;26.70;99.90;;;;;;5043890;28;19916;-70
2022/05/18 13:09:19;;;;;;;;;;;26.90;99.90;;;;;;5041759;28;19913;-70
2022/05/18 13:11:44;;;;;;;;;;;26.90;99.90;;;;;;5041845;28;20417;-70
2022/05/18 13:14:29;;;;;;;;;;;27.00;99.90;;;;;;5040321;28;19921;-71
2022/05/18 13:16:54;;;;;;;;;;;26.70;99.90;;;;;;5039928;28;19913;-68
2022/05/18 13:19:23;;;;;;;;;;;26.70;99.90;;;;;;5037357;28;19958;-67
2022/05/18 13:22:07;;;;;;;;;;;26.70;99.90;;;;;;5038714;28;19924;-68
2022/05/18 13:24:38;;;;;;;;;;;26.70;99.90;;;;;;5042594;28;20394;-70
2022/05/18 13:27:09;;;;;;;;;;;26.80;99.90;;;;;;5043505;28;19913;-68
2022/05/18 13:29:35;;;;;;;;;;;26.80;99.90;;;;;;5044463;28;20415;-68
2022/05/18 13:32:05;;;;;;;;;;;27.10;99.90;;;;;;5041526;28;19956;-69
2022/05/18 13:34:43;;;;;;;;;;;27.00;99.90;;;;;;5041430;28;19937;-67
2022/05/18 13:37:09;;;;;;;;;;;26.90;99.90;;;;;;5026075;28;19972;-69
2022/05/18 13:39:36;;;;;;;;;;;26.80;99.90;;;;;;5047301;28;19950;-68
2022/05/18 13:42:03;;;;;;;;;;;26.90;99.90;;;;;;5050619;28;19956;-68
2022/05/18 13:44:29;;;;;;;;;;;26.90;99.90;;;;;;5047362;28;19939;-68
2022/05/18 13:46:56;;;;;;;;;;;26.90;99.90;;;;;;5043005;28;19924;-70
2022/05/18 13:49:24;;;;;;;;;;;27.00;99.90;;;;;;5039612;28;19913;-69
2022/05/18 13:51:52;;;;;;;;;;;27.00;99.90;;;;;;5040944;28;19917;-70
2022/05/18 13:54:22;;;;;;;;;;;27.20;99.90;;;;;;5039012;28;19913;-70
2022/05/18 13:56:49;;;;;;;;;;;27.20;99.90;;;;;;5039945;28;19958;-70
2022/05/18 13:59:19;;;;;;;;;;;27.20;99.90;;;;;;5039581;28;20464;-70
2022/05/18 14:01:47;;;;;;;;;;;27.30;99.90;;;;;;5036163;28;19921;-67
2022/05/18 14:04:17;;;;;;;;;;;27.10;99.90;;;;;;5034817;28;19914;-67
2022/05/18 14:06:47;;;;;;;;;;;26.70;99.90;;;;;;5038954;28;19939;-69
2022/05/18 14:09:14;;;;;;;;;;;26.70;99.90;;;;;;5038464;28;20579;-69
2022/05/18 14:11:40;;;;;;;;;;;26.80;99.90;;;;;;5044662;28;19924;-68
2022/05/18 14:14:05;;;;;;;;;;;26.60;99.90;;;;;;5042827;28;20016;-68
2022/05/18 14:16:34;;;;;;;;;;;26.60;99.90;;;;;;5044593;28;19917;-69
2022/05/18 14:19:01;;;;;;;;;;;26.50;99.90;;;;;;5027569;28;19917;-68
2022/05/18 14:21:27;;;;;;;;;;;26.40;99.90;;;;;;5045047;28;20009;-69
2022/05/18 14:24:13;;;;;;;;;;;26.70;99.90;;;;;;5028861;28;20378;-68
2022/05/18 14:26:41;;;;;;;;;;;27.00;99.90;;;;;;5044820;28;19913;-69
2022/05/18 14:29:09;;;;;;;;;;;27.00;99.90;;;;;;5046751;28;19936;-70
2022/05/18 14:31:47;;;;;;;;;;;26.90;99.90;;;;;;5047093;28;20430;-71
2022/05/18 14:34:16;;;;;;;;;;;26.70;99.90;;;;;;5046637;28;20011;-69
2022/05/18 14:36:47;;;;;;;;;;;26.60;99.90;;;;;;5048313;28;20362;-68
2022/05/18 14:39:35;;;;;;;;;;;26.70;99.90;;;;;;5045631;28;19947;-68
2022/05/18 14:42:01;;;;;;;;;;;26.90;99.90;;;;;;5041454;28;19964;-68
2022/05/18 14:44:35;;;;;;;;;;;26.60;99.90;;;;;;5039487;28;19913;-68